sensor_id;sensor_type;location;lat;lon;timestamp;pressure;altitude;pressure_sealevel;temperature;humidity
21547;BME280;41275;51.912;4.388;2024-01-30T00:04:52;102534.19;;;15.56;52.79
21547;BME280;41275;51.912;4.388;2024-01-30T00:10:14;102550.38;;;15.61;52.85
21547;BME280;41275;51.912;4.388;2024-01-30T00:15:35;102529.03;;;15.61;52.33
21547;BME280;41275;51.912;4.388;2024-01-30T00:20:56;102508.06;;;15.64;52.63
21547;BME280;41275;51.912;4.388;2024-01-30T00:26:17;102501.72;;;15.65;52.08
21547;BME280;41275;51.912;4.388;2024-01-30T00:31:39;102499.81;;;15.73;52.03
21547;BME280;41275;51.912;4.388;2024-01-30T00:37:00;102503.88;;;15.75;52.24
21547;BME280;41275;51.912;4.388;2024-01-30T00:42:21;102528.88;;;15.81;51.77
21547;BME280;41275;51.912;4.388;2024-01-30T00:47:44;102525.78;;;15.84;51.88
21547;BME280;41275;51.912;4.388;2024-01-30T00:53:05;102510.34;;;15.86;51.77
21547;BME280;41275;51.912;4.388;2024-01-30T00:58:27;102515.63;;;15.92;51.53
21547;BME280;41275;51.912;4.388;2024-01-30T01:03:48;102503.09;;;15.93;51.78
21547;BME280;41275;51.912;4.388;2024-01-30T01:09:12;102497.75;;;15.93;51.51
21547;BME280;41275;51.912;4.388;2024-01-30T01:14:33;102507.34;;;16.01;51.48
21547;BME280;41275;51.912;4.388;2024-01-30T01:19:55;102493.16;;;16.00;51.43
21547;BME280;41275;51.912;4.388;2024-01-30T01:25:16;102490.03;;;16.03;51.39
21547;BME280;41275;51.912;4.388;2024-01-30T01:30:37;102473.81;;;16.05;51.09
21547;BME280;41275;51.912;4.388;2024-01-30T01:36:00;102485.06;;;16.07;50.91
21547;BME280;41275;51.912;4.388;2024-01-30T01:41:23;102491.75;;;15.98;50.88
21547;BME280;41275;51.912;4.388;2024-01-30T01:46:44;102494.28;;;15.92;51.16
21547;BME280;41275;51.912;4.388;2024-01-30T01:52:06;102481.59;;;15.88;51.01
21547;BME280;41275;51.912;4.388;2024-01-30T01:57:27;102483.41;;;15.87;51.21
21547;BME280;41275;51.912;4.388;2024-01-30T02:02:49;102477.44;;;15.92;51.33
21547;BME280;41275;51.912;4.388;2024-01-30T02:08:10;102465.47;;;15.94;51.25
21547;BME280;41275;51.912;4.388;2024-01-30T02:13:32;102472.69;;;15.94;50.92
21547;BME280;41275;51.912;4.388;2024-01-30T02:18:53;102476.16;;;15.94;51.38
21547;BME280;41275;51.912;4.388;2024-01-30T02:24:14;102482.16;;;15.90;51.41
21547;BME280;41275;51.912;4.388;2024-01-30T02:29:35;102479.06;;;15.93;51.40
21547;BME280;41275;51.912;4.388;2024-01-30T02:34:56;102473.28;;;15.96;51.47
21547;BME280;41275;51.912;4.388;2024-01-30T02:40:18;102465.84;;;15.98;51.26
21547;BME280;41275;51.912;4.388;2024-01-30T02:45:39;102456.97;;;16.04;51.42
21547;BME280;41275;51.912;4.388;2024-01-30T02:51:00;102448.50;;;16.07;51.22
21547;BME280;41275;51.912;4.388;2024-01-30T02:56:21;102438.84;;;16.06;51.24
21547;BME280;41275;51.912;4.388;2024-01-30T03:01:43;102444.06;;;16.01;51.34
21547;BME280;41275;51.912;4.388;2024-01-30T03:07:05;102452.31;;;16.00;51.07
21547;BME280;41275;51.912;4.388;2024-01-30T03:12:26;102445.97;;;15.94;51.40
21547;BME280;41275;51.912;4.388;2024-01-30T03:17:47;102448.22;;;15.97;51.39
21547;BME280;41275;51.912;4.388;2024-01-30T03:23:08;102455.19;;;15.98;51.06
21547;BME280;41275;51.912;4.388;2024-01-30T03:28:30;102446.59;;;15.96;51.60
21547;BME280;41275;51.912;4.388;2024-01-30T03:33:51;102453.31;;;15.99;51.46
21547;BME280;41275;51.912;4.388;2024-01-30T03:39:12;102447.16;;;15.98;51.30
21547;BME280;41275;51.912;4.388;2024-01-30T03:44:33;102438.56;;;15.96;51.66
21547;BME280;41275;51.912;4.388;2024-01-30T03:49:55;102445.69;;;16.02;51.19
21547;BME280;41275;51.912;4.388;2024-01-30T03:55:16;102436.19;;;16.06;51.03
21547;BME280;41275;51.912;4.388;2024-01-30T04:00:37;102440.91;;;16.23;50.65
21547;BME280;41275;51.912;4.388;2024-01-30T04:05:58;102436.41;;;16.23;50.79
21547;BME280;41275;51.912;4.388;2024-01-30T04:11:19;102438.41;;;16.28;51.06
21547;BME280;41275;51.912;4.388;2024-01-30T04:16:41;102435.13;;;16.26;50.98
21547;BME280;41275;51.912;4.388;2024-01-30T04:22:02;102432.59;;;16.31;50.45
21547;BME280;41275;51.912;4.388;2024-01-30T04:27:23;102424.13;;;16.34;50.58
21547;BME280;41275;51.912;4.388;2024-01-30T04:32:46;102421.47;;;16.34;50.70
21547;BME280;41275;51.912;4.388;2024-01-30T04:38:08;102416.28;;;16.20;50.80
21547;BME280;41275;51.912;4.388;2024-01-30T04:43:29;102412.44;;;16.16;51.21
21547;BME280;41275;51.912;4.388;2024-01-30T04:48:51;102412.06;;;16.13;50.81
21547;BME280;41275;51.912;4.388;2024-01-30T04:54:12;102416.38;;;16.14;51.15
21547;BME280;41275;51.912;4.388;2024-01-30T04:59:33;102422.00;;;16.06;51.06
21547;BME280;41275;51.912;4.388;2024-01-30T05:04:54;102418.59;;;16.17;50.99
21547;BME280;41275;51.912;4.388;2024-01-30T05:10:16;102420.38;;;16.23;51.33
21547;BME280;41275;51.912;4.388;2024-01-30T05:15:37;102415.38;;;16.27;50.94
21547;BME280;41275;51.912;4.388;2024-01-30T05:20:58;102415.38;;;16.27;51.04
21547;BME280;41275;51.912;4.388;2024-01-30T05:26:19;102413.69;;;16.32;51.20
21547;BME280;41275;51.912;4.388;2024-01-30T05:31:41;102410.41;;;16.30;51.22
21547;BME280;41275;51.912;4.388;2024-01-30T05:37:02;102414.50;;;16.33;50.94
21547;BME280;41275;51.912;4.388;2024-01-30T05:42:23;102416.09;;;16.34;51.04
21547;BME280;41275;51.912;4.388;2024-01-30T05:47:44;102422.63;;;16.38;51.12
21547;BME280;41275;51.912;4.388;2024-01-30T05:53:06;102429.97;;;16.42;50.97
21547;BME280;41275;51.912;4.388;2024-01-30T05:58:27;102429.16;;;16.42;50.94
21547;BME280;41275;51.912;4.388;2024-01-30T06:03:48;102429.31;;;16.47;51.14
21547;BME280;41275;51.912;4.388;2024-01-30T06:09:09;102430.13;;;16.48;51.09
21547;BME280;41275;51.912;4.388;2024-01-30T06:14:31;102420.97;;;16.55;50.87
21547;BME280;41275;51.912;4.388;2024-01-30T06:19:53;102422.84;;;16.55;51.16
21547;BME280;41275;51.912;4.388;2024-01-30T06:25:15;102418.44;;;16.60;51.25
21547;BME280;41275;51.912;4.388;2024-01-30T06:30:37;102425.41;;;16.61;51.30
21547;BME280;41275;51.912;4.388;2024-01-30T06:35:58;102432.50;;;16.67;51.23
21547;BME280;41275;51.912;4.388;2024-01-30T06:41:20;102432.88;;;16.71;51.47
21547;BME280;41275;51.912;4.388;2024-01-30T06:46:41;102433.63;;;16.78;51.03
21547;BME280;41275;51.912;4.388;2024-01-30T06:52:02;102431.06;;;16.83;51.57
21547;BME280;41275;51.912;4.388;2024-01-30T06:57:24;102414.59;;;16.86;50.99
21547;BME280;41275;51.912;4.388;2024-01-30T07:02:45;102429.69;;;16.92;51.21
21547;BME280;41275;51.912;4.388;2024-01-30T07:08:06;102436.53;;;16.88;51.01
21547;BME280;41275;51.912;4.388;2024-01-30T07:13:28;102440.03;;;16.89;51.13
21547;BME280;41275;51.912;4.388;2024-01-30T07:18:49;102446.78;;;16.91;51.05
21547;BME280;41275;51.912;4.388;2024-01-30T07:24:11;102451.22;;;16.98;51.29
21547;BME280;41275;51.912;4.388;2024-01-30T07:29:32;102460.63;;;17.00;51.26
21547;BME280;41275;51.912;4.388;2024-01-30T07:34:53;102468.22;;;17.03;51.08
21547;BME280;41275;51.912;4.388;2024-01-30T07:40:14;102462.78;;;17.10;51.32
21547;BME280;41275;51.912;4.388;2024-01-30T07:45:36;102466.38;;;17.15;51.21
21547;BME280;41275;51.912;4.388;2024-01-30T07:50:58;102474.06;;;17.24;51.16
21547;BME280;41275;51.912;4.388;2024-01-30T07:56:19;102477.81;;;17.34;51.03
21547;BME280;41275;51.912;4.388;2024-01-30T08:01:41;102479.78;;;17.39;51.20
21547;BME280;41275;51.912;4.388;2024-01-30T08:07:02;102484.69;;;17.42;50.80
21547;BME280;41275;51.912;4.388;2024-01-30T08:12:23;102513.66;;;17.45;50.84
21547;BME280;41275;51.912;4.388;2024-01-30T08:17:44;102505.50;;;17.40;50.85
21547;BME280;41275;51.912;4.388;2024-01-30T08:23:06;102491.09;;;17.41;50.96
21547;BME280;41275;51.912;4.388;2024-01-30T08:28:27;102512.34;;;17.36;50.57
21547;BME280;41275;51.912;4.388;2024-01-30T08:33:48;102505.25;;;17.30;50.57
21547;BME280;41275;51.912;4.388;2024-01-30T08:39:10;102506.97;;;17.24;50.86
21547;BME280;41275;51.912;4.388;2024-01-30T08:44:31;102504.66;;;17.28;50.80
21547;BME280;41275;51.912;4.388;2024-01-30T08:49:52;102507.94;;;17.30;50.81
21547;BME280;41275;51.912;4.388;2024-01-30T08:55:13;102519.44;;;17.30;50.47
21547;BME280;41275;51.912;4.388;2024-01-30T09:00:35;102523.28;;;17.23;50.51
21547;BME280;41275;51.912;4.388;2024-01-30T09:05:56;102519.34;;;17.25;50.63
21547;BME280;41275;51.912;4.388;2024-01-30T09:11:18;102541.44;;;17.32;50.53
21547;BME280;41275;51.912;4.388;2024-01-30T09:16:39;102539.00;;;17.31;50.59
21547;BME280;41275;51.912;4.388;2024-01-30T09:22:00;102545.59;;;17.28;51.11
21547;BME280;41275;51.912;4.388;2024-01-30T09:27:22;102554.94;;;17.26;51.04
21547;BME280;41275;51.912;4.388;2024-01-30T09:32:43;102559.56;;;17.18;50.76
21547;BME280;41275;51.912;4.388;2024-01-30T09:38:04;102573.81;;;17.12;51.13
21547;BME280;41275;51.912;4.388;2024-01-30T09:43:30;102593.25;;;17.08;51.09
21547;BME280;41275;51.912;4.388;2024-01-30T09:48:55;102591.81;;;17.05;50.84
21547;BME280;41275;51.912;4.388;2024-01-30T09:54:17;102603.13;;;17.07;50.94
21547;BME280;41275;51.912;4.388;2024-01-30T09:59:41;102601.28;;;16.89;50.69
21547;BME280;41275;51.912;4.388;2024-01-30T10:05:03;102606.84;;;16.69;50.61
21547;BME280;41275;51.912;4.388;2024-01-30T10:10:24;102620.00;;;16.53;50.27
21547;BME280;41275;51.912;4.388;2024-01-30T10:15:47;102620.53;;;16.43;49.89
21547;BME280;41275;51.912;4.388;2024-01-30T10:21:08;102615.19;;;16.43;49.70
21547;BME280;41275;51.912;4.388;2024-01-30T10:26:30;102622.88;;;16.33;49.46
21547;BME280;41275;51.912;4.388;2024-01-30T10:32:00;102634.19;;;16.35;49.47
21547;BME280;41275;51.912;4.388;2024-01-30T10:37:25;102629.25;;;16.32;49.32
21547;BME280;41275;51.912;4.388;2024-01-30T10:42:47;102638.38;;;16.24;49.38
21547;BME280;41275;51.912;4.388;2024-01-30T10:48:09;102630.84;;;16.14;49.13
21547;BME280;41275;51.912;4.388;2024-01-30T10:53:31;102638.09;;;15.82;49.61
21547;BME280;41275;51.912;4.388;2024-01-30T10:58:54;102653.25;;;15.57;49.97
21547;BME280;41275;51.912;4.388;2024-01-30T11:04:16;102660.06;;;15.46;50.42
21547;BME280;41275;51.912;4.388;2024-01-30T11:09:37;102647.94;;;15.50;50.91
21547;BME280;41275;51.912;4.388;2024-01-30T11:20:30;102656.66;;;15.32;50.61
21547;BME280;41275;51.912;4.388;2024-01-30T11:25:57;102676.59;;;15.30;50.02
21547;BME280;41275;51.912;4.388;2024-01-30T11:31:18;102664.84;;;15.37;50.24
21547;BME280;41275;51.912;4.388;2024-01-30T11:36:42;102666.91;;;15.35;49.75
21547;BME280;41275;51.912;4.388;2024-01-30T11:42:06;102657.66;;;15.38;50.08
21547;BME280;41275;51.912;4.388;2024-01-30T11:47:29;102669.16;;;15.38;49.58
21547;BME280;41275;51.912;4.388;2024-01-30T11:52:50;102650.44;;;15.45;49.54
21547;BME280;41275;51.912;4.388;2024-01-30T11:58:11;102671.81;;;15.38;49.66
21547;BME280;41275;51.912;4.388;2024-01-30T12:03:32;102681.31;;;15.28;49.48
21547;BME280;41275;51.912;4.388;2024-01-30T12:09:00;102680.31;;;15.15;50.11
21547;BME280;41275;51.912;4.388;2024-01-30T12:14:24;102675.69;;;14.97;50.41
21547;BME280;41275;51.912;4.388;2024-01-30T12:19:47;102675.91;;;14.89;50.62
21547;BME280;41275;51.912;4.388;2024-01-30T12:25:12;102697.44;;;14.94;51.07
21547;BME280;41275;51.912;4.388;2024-01-30T12:30:34;102700.69;;;14.96;51.26
21547;BME280;41275;51.912;4.388;2024-01-30T12:35:56;102710.19;;;14.86;51.10
21547;BME280;41275;51.912;4.388;2024-01-30T12:41:18;102705.03;;;14.84;51.78
21547;BME280;41275;51.912;4.388;2024-01-30T12:46:40;102705.22;;;14.96;51.49
21547;BME280;41275;51.912;4.388;2024-01-30T12:52:02;102712.16;;;14.97;51.53
21547;BME280;41275;51.912;4.388;2024-01-30T12:57:23;102704.16;;;15.04;51.69
21547;BME280;41275;51.912;4.388;2024-01-30T13:02:45;102727.13;;;15.11;51.27
21547;BME280;41275;51.912;4.388;2024-01-30T13:08:06;102724.03;;;15.08;50.97
21547;BME280;41275;51.912;4.388;2024-01-30T13:13:27;102719.41;;;14.90;51.45
21547;BME280;41275;51.912;4.388;2024-01-30T13:18:48;102721.88;;;14.71;51.30
21547;BME280;41275;51.912;4.388;2024-01-30T13:24:10;102739.91;;;14.69;51.31
21547;BME280;41275;51.912;4.388;2024-01-30T13:29:31;102737.66;;;14.53;52.17
21547;BME280;41275;51.912;4.388;2024-01-30T13:34:52;102750.59;;;14.49;52.74
21547;BME280;41275;51.912;4.388;2024-01-30T13:40:13;102752.41;;;14.42;52.70
21547;BME280;41275;51.912;4.388;2024-01-30T13:45:35;102755.25;;;14.34;53.41
21547;BME280;41275;51.912;4.388;2024-01-30T13:50:56;102763.88;;;14.23;53.86
21547;BME280;41275;51.912;4.388;2024-01-30T13:56:17;102754.84;;;14.24;54.19
21547;BME280;41275;51.912;4.388;2024-01-30T14:01:39;102767.13;;;14.25;54.32
21547;BME280;41275;51.912;4.388;2024-01-30T14:07:00;102775.53;;;14.22;53.84
21547;BME280;41275;51.912;4.388;2024-01-30T14:12:21;102773.47;;;14.17;54.19
21547;BME280;41275;51.912;4.388;2024-01-30T14:17:43;102791.09;;;14.12;54.57
21547;BME280;41275;51.912;4.388;2024-01-30T14:23:04;102794.38;;;14.07;55.04
21547;BME280;41275;51.912;4.388;2024-01-30T14:28:25;102802.53;;;14.06;55.30
21547;BME280;41275;51.912;4.388;2024-01-30T14:33:46;102808.72;;;14.13;54.85
21547;BME280;41275;51.912;4.388;2024-01-30T14:39:08;102805.84;;;14.08;55.20
21547;BME280;41275;51.912;4.388;2024-01-30T14:44:29;102819.31;;;14.06;55.44
21547;BME280;41275;51.912;4.388;2024-01-30T14:49:51;102830.41;;;14.03;55.15
21547;BME280;41275;51.912;4.388;2024-01-30T14:55:13;102833.63;;;13.98;55.40
21547;BME280;41275;51.912;4.388;2024-01-30T15:00:34;102843.84;;;13.95;55.66
21547;BME280;41275;51.912;4.388;2024-01-30T15:05:59;102856.13;;;13.89;55.62
21547;BME280;41275;51.912;4.388;2024-01-30T15:11:20;102858.19;;;13.87;56.03
21547;BME280;41275;51.912;4.388;2024-01-30T15:16:42;102866.75;;;13.83;56.54
21547;BME280;41275;51.912;4.388;2024-01-30T15:22:03;102872.06;;;13.83;56.42
21547;BME280;41275;51.912;4.388;2024-01-30T15:27:24;102878.41;;;13.82;56.64
21547;BME280;41275;51.912;4.388;2024-01-30T15:32:46;102893.13;;;13.78;56.88
21547;BME280;41275;51.912;4.388;2024-01-30T15:38:07;102903.19;;;13.82;56.54
21547;BME280;41275;51.912;4.388;2024-01-30T15:43:29;102912.59;;;13.78;56.65
21547;BME280;41275;51.912;4.388;2024-01-30T15:48:53;102919.13;;;13.75;56.57
21547;BME280;41275;51.912;4.388;2024-01-30T15:54:14;102928.91;;;13.68;56.76
21547;BME280;41275;51.912;4.388;2024-01-30T15:59:36;102944.69;;;13.70;56.99
21547;BME280;41275;51.912;4.388;2024-01-30T16:04:57;102955.53;;;13.75;56.78
21547;BME280;41275;51.912;4.388;2024-01-30T16:10:19;102971.13;;;13.78;56.55
21547;BME280;41275;51.912;4.388;2024-01-30T16:15:40;102971.28;;;13.70;57.05
21547;BME280;41275;51.912;4.388;2024-01-30T16:21:04;102971.34;;;13.77;57.12
21547;BME280;41275;51.912;4.388;2024-01-30T16:26:26;102982.75;;;13.70;57.09
21547;BME280;41275;51.912;4.388;2024-01-30T16:31:47;102988.41;;;13.61;57.26
21547;BME280;41275;51.912;4.388;2024-01-30T16:37:09;102990.41;;;13.52;57.25
21547;BME280;41275;51.912;4.388;2024-01-30T16:42:30;103010.16;;;13.43;57.84
21547;BME280;41275;51.912;4.388;2024-01-30T16:47:51;103005.03;;;13.41;57.77
21547;BME280;41275;51.912;4.388;2024-01-30T16:53:12;103006.09;;;13.47;57.53
21547;BME280;41275;51.912;4.388;2024-01-30T16:58:33;103012.44;;;13.46;57.69
21547;BME280;41275;51.912;4.388;2024-01-30T17:03:55;103028.03;;;13.49;57.27
21547;BME280;41275;51.912;4.388;2024-01-30T17:09:16;103040.06;;;13.45;57.56
21547;BME280;41275;51.912;4.388;2024-01-30T17:14:37;103044.16;;;13.47;57.77
21547;BME280;41275;51.912;4.388;2024-01-30T17:20:00;103059.06;;;13.42;57.50
21547;BME280;41275;51.912;4.388;2024-01-30T17:25:21;103067.09;;;13.48;57.79
21547;BME280;41275;51.912;4.388;2024-01-30T17:30:43;103074.56;;;13.60;57.37
21547;BME280;41275;51.912;4.388;2024-01-30T17:36:04;103081.97;;;13.64;57.18
21547;BME280;41275;51.912;4.388;2024-01-30T17:41:25;103094.41;;;13.57;57.39
21547;BME280;41275;51.912;4.388;2024-01-30T17:46:47;103100.28;;;13.53;57.13
21547;BME280;41275;51.912;4.388;2024-01-30T17:52:09;103116.69;;;13.56;57.35
21547;BME280;41275;51.912;4.388;2024-01-30T17:57:30;103128.16;;;13.57;57.06
21547;BME280;41275;51.912;4.388;2024-01-30T18:02:51;103142.91;;;13.59;56.73
21547;BME280;41275;51.912;4.388;2024-01-30T18:08:13;103138.81;;;13.57;56.43
21547;BME280;41275;51.912;4.388;2024-01-30T18:13:35;103142.97;;;13.44;56.85
21547;BME280;41275;51.912;4.388;2024-01-30T18:18:56;103150.50;;;13.41;56.54
21547;BME280;41275;51.912;4.388;2024-01-30T18:24:17;103150.56;;;13.47;56.69
21547;BME280;41275;51.912;4.388;2024-01-30T18:29:38;103168.50;;;13.60;56.66
21547;BME280;41275;51.912;4.388;2024-01-30T18:35:00;103170.97;;;13.62;56.35
21547;BME280;41275;51.912;4.388;2024-01-30T18:40:22;103176.75;;;13.65;56.19
21547;BME280;41275;51.912;4.388;2024-01-30T18:45:51;103184.03;;;13.57;56.15
21547;BME280;41275;51.912;4.388;2024-01-30T18:51:14;103197.94;;;13.59;56.20
21547;BME280;41275;51.912;4.388;2024-01-30T18:56:38;103201.06;;;13.62;56.24
21547;BME280;41275;51.912;4.388;2024-01-30T19:02:00;103200.44;;;13.60;56.08
21547;BME280;41275;51.912;4.388;2024-01-30T19:07:21;103205.06;;;13.73;55.70
21547;BME280;41275;51.912;4.388;2024-01-30T19:12:42;103225.34;;;13.74;55.69
21547;BME280;41275;51.912;4.388;2024-01-30T19:18:05;103232.31;;;13.75;55.62
21547;BME280;41275;51.912;4.388;2024-01-30T19:23:27;103237.00;;;13.73;55.62
21547;BME280;41275;51.912;4.388;2024-01-30T19:28:48;103244.63;;;13.76;55.62
21547;BME280;41275;51.912;4.388;2024-01-30T19:34:10;103247.66;;;13.73;55.08
21547;BME280;41275;51.912;4.388;2024-01-30T19:39:31;103267.13;;;13.59;55.30
21547;BME280;41275;51.912;4.388;2024-01-30T19:44:52;103268.81;;;13.45;55.48
21547;BME280;41275;51.912;4.388;2024-01-30T19:50:14;103269.53;;;13.39;55.30
21547;BME280;41275;51.912;4.388;2024-01-30T19:55:35;103276.13;;;13.43;55.16
21547;BME280;41275;51.912;4.388;2024-01-30T20:00:56;103281.09;;;13.46;55.19
21547;BME280;41275;51.912;4.388;2024-01-30T20:06:17;103280.28;;;13.45;55.06
21547;BME280;41275;51.912;4.388;2024-01-30T20:11:39;103283.75;;;13.46;54.95
21547;BME280;41275;51.912;4.388;2024-01-30T20:17:00;103290.34;;;13.50;54.73
21547;BME280;41275;51.912;4.388;2024-01-30T20:22:24;103301.25;;;13.55;54.99
21547;BME280;41275;51.912;4.388;2024-01-30T20:27:46;103296.13;;;13.54;54.22
21547;BME280;41275;51.912;4.388;2024-01-30T20:33:08;103310.06;;;13.56;54.14
21547;BME280;41275;51.912;4.388;2024-01-30T20:38:35;103308.72;;;13.60;54.21
21547;BME280;41275;51.912;4.388;2024-01-30T20:43:57;103316.28;;;13.63;53.60
21547;BME280;41275;51.912;4.388;2024-01-30T20:49:18;103320.91;;;13.54;53.75
21547;BME280;41275;51.912;4.388;2024-01-30T20:54:40;103318.03;;;13.56;53.65
21547;BME280;41275;51.912;4.388;2024-01-30T21:00:01;103337.50;;;13.56;53.02
21547;BME280;41275;51.912;4.388;2024-01-30T21:05:22;103358.81;;;13.56;52.72
21547;BME280;41275;51.912;4.388;2024-01-30T21:10:45;103358.69;;;13.49;52.42
21547;BME280;41275;51.912;4.388;2024-01-30T21:16:06;103358.69;;;13.49;52.46
21547;BME280;41275;51.912;4.388;2024-01-30T21:21:27;103383.09;;;13.53;52.31
21547;BME280;41275;51.912;4.388;2024-01-30T21:26:50;103373.47;;;13.52;52.07
21547;BME280;41275;51.912;4.388;2024-01-30T21:32:12;103374.84;;;13.48;52.05
21547;BME280;41275;51.912;4.388;2024-01-30T21:37:33;103383.47;;;13.50;51.79
21547;BME280;41275;51.912;4.388;2024-01-30T21:42:54;103390.78;;;13.63;51.82
21547;BME280;41275;51.912;4.388;2024-01-30T21:48:16;103389.34;;;13.60;51.42
21547;BME280;41275;51.912;4.388;2024-01-30T21:53:37;103392.38;;;13.57;51.12
21547;BME280;41275;51.912;4.388;2024-01-30T21:58:58;103398.41;;;13.36;51.57
21547;BME280;41275;51.912;4.388;2024-01-30T22:04:19;103396.47;;;13.30;51.59
21547;BME280;41275;51.912;4.388;2024-01-30T22:09:42;103404.16;;;13.40;51.61
21547;BME280;41275;51.912;4.388;2024-01-30T22:15:04;103404.38;;;13.38;51.42
21547;BME280;41275;51.912;4.388;2024-01-30T22:20:25;103407.31;;;13.29;51.62
21547;BME280;41275;51.912;4.388;2024-01-30T22:25:46;103407.47;;;13.27;51.37
21547;BME280;41275;51.912;4.388;2024-01-30T22:31:07;103409.16;;;13.20;51.46
21547;BME280;41275;51.912;4.388;2024-01-30T22:36:29;103390.75;;;13.18;51.83
21547;BME280;41275;51.912;4.388;2024-01-30T22:41:51;103393.41;;;13.18;51.74
21547;BME280;41275;51.912;4.388;2024-01-30T22:47:13;103396.53;;;13.22;51.74
21547;BME280;41275;51.912;4.388;2024-01-30T22:52:34;103396.53;;;13.22;52.00
21547;BME280;41275;51.912;4.388;2024-01-30T22:57:55;103397.56;;;13.36;51.71
21547;BME280;41275;51.912;4.388;2024-01-30T23:03:16;103404.84;;;13.42;51.79
21547;BME280;41275;51.912;4.388;2024-01-30T23:08:38;103405.28;;;13.45;51.76
21547;BME280;41275;51.912;4.388;2024-01-30T23:13:59;103408.41;;;13.34;51.91
21547;BME280;41275;51.912;4.388;2024-01-30T23:19:20;103418.94;;;13.42;51.68
21547;BME280;41275;51.912;4.388;2024-01-30T23:24:42;103426.47;;;13.39;51.77
21547;BME280;41275;51.912;4.388;2024-01-30T23:30:03;103431.91;;;13.45;51.55
21547;BME280;41275;51.912;4.388;2024-01-30T23:35:24;103447.75;;;13.39;51.48
21547;BME280;41275;51.912;4.388;2024-01-30T23:40:46;103439.66;;;13.32;51.78
21547;BME280;41275;51.912;4.388;2024-01-30T23:46:09;103456.97;;;13.28;51.52
21547;BME280;41275;51.912;4.388;2024-01-30T23:51:30;103463.91;;;13.14;51.45
21547;BME280;41275;51.912;4.388;2024-01-30T23:56:52;103451.84;;;13.03;52.17
